Aviation Digital Data Service (ADDS)

Output produced by TAFs form (1615 UTC 30 March 2015)
found at http://aviationweather.gov/adds/tafs/
 
KPUB 301121Z 3012/3112 VRB05KT P6SM SCT200 
     FM302100 11010KT P6SM FEW120 SCT200 
     FM310200 VRB05KT P6SM SCT200